Time;durP1;ratioP1;P1;durP2;ratioP2;P2;SDS_P1;SDS_P2;PMS_P1;PMS_P2;Temp;Humidity;BMP_temperature;BMP_pressure;BME280_temperature;BME280_humidity;BME280_pressure;Samples;Min_cycle;Max_cycle;Signal;HPM_P1;HPM_P2
2023/07/27 00:01:53;;;;;;;1.70;1.60;;;23.90;92.10;;;;;;5072609;28;20439;-86
2023/07/27 00:04:22;;;;;;;1.60;1.50;;;23.90;92.10;;;;;;5072565;28;21003;-87
2023/07/27 00:06:49;;;;;;;1.90;1.70;;;23.90;92.20;;;;;;5072532;28;20842;-87
2023/07/27 00:09:17;;;;;;;1.43;1.33;;;23.90;92.10;;;;;;5072335;28;20438;-87
2023/07/27 00:11:44;;;;;;;1.80;1.70;;;23.90;92.10;;;;;;5072686;28;20448;-87
2023/07/27 00:14:11;;;;;;;1.60;1.50;;;23.90;92.20;;;;;;5072683;28;20448;-87
2023/07/27 00:16:38;;;;;;;1.60;1.50;;;23.90;92.10;;;;;;5072604;28;20478;-87
2023/07/27 00:19:04;;;;;;;1.40;1.20;;;23.90;92.10;;;;;;5072176;28;20469;-87
2023/07/27 00:21:31;;;;;;;1.70;1.60;;;23.80;92.20;;;;;;5072612;28;20437;-88
2023/07/27 00:23:58;;;;;;;1.40;1.23;;;23.90;92.20;;;;;;5072352;28;20488;-88
2023/07/27 00:26:26;;;;;;;1.70;1.60;;;23.90;92.20;;;;;;5072836;28;20445;-89
2023/07/27 00:28:53;;;;;;;2.60;1.30;;;23.90;92.10;;;;;;5076189;28;20441;-88
2023/07/27 00:31:19;;;;;;;1.77;1.67;;;23.90;92.10;;;;;;5075970;28;20447;-87
2023/07/27 00:33:45;;;;;;;2.03;1.83;;;23.90;92.10;;;;;;5076056;28;20527;-88
2023/07/27 00:36:12;;;;;;;2.33;1.53;;;23.80;92.20;;;;;;5076132;28;20551;-87
2023/07/27 00:38:39;;;;;;;1.80;1.70;;;23.80;92.10;;;;;;5075762;28;20533;-87
2023/07/27 00:41:07;;;;;;;1.90;1.70;;;23.80;92.20;;;;;;5075845;28;20436;-87
2023/07/27 00:43:35;;;;;;;2.10;1.90;;;23.90;92.20;;;;;;5075712;28;20505;-88
2023/07/27 00:46:02;;;;;;;1.60;1.50;;;23.90;92.10;;;;;;5075964;28;20467;-87
2023/07/27 00:48:29;;;;;;;2.07;1.60;;;23.80;92.20;;;;;;5075674;28;20484;-87
2023/07/27 00:50:56;;;;;;;1.50;1.40;;;23.90;92.10;;;;;;5075824;28;20782;-87
2023/07/27 00:53:24;;;;;;;1.50;1.40;;;23.80;92.10;;;;;;5075583;28;20451;-87
2023/07/27 00:55:51;;;;;;;1.43;1.33;;;23.90;92.30;;;;;;5075542;28;20435;-87
2023/07/27 00:58:18;;;;;;;1.60;1.47;;;23.80;92.10;;;;;;5075524;28;20460;-87
2023/07/27 01:00:46;;;;;;;2.20;2.00;;;23.80;92.40;;;;;;5075583;28;20441;-87
2023/07/27 01:03:13;;;;;;;1.50;1.40;;;23.90;92.20;;;;;;5075360;28;20478;-87
2023/07/27 01:05:40;;;;;;;1.50;1.30;;;23.80;92.10;;;;;;5075436;28;20447;-87
2023/07/27 01:08:07;;;;;;;1.50;1.40;;;23.90;92.40;;;;;;5074988;28;20819;-87
2023/07/27 01:10:46;;;;;;;1.57;1.47;;;23.90;92.30;;;;;;5074924;28;20440;-86
2023/07/27 01:13:21;;;;;;;1.77;1.67;;;23.90;92.40;;;;;;5075247;28;20455;-87
2023/07/27 01:15:56;;;;;;;2.30;2.10;;;23.80;92.30;;;;;;5075247;28;20441;-87
2023/07/27 01:18:28;;;;;;;1.63;1.53;;;23.90;92.40;;;;;;5074840;28;20451;-87
2023/07/27 01:21:03;;;;;;;1.73;1.63;;;23.90;92.40;;;;;;5075162;28;20445;-87
2023/07/27 01:24:09;;;;;;;1.60;1.50;;;23.80;92.50;;;;;;5074995;28;20987;-87
2023/07/27 01:26:52;;;;;;;1.67;1.57;;;23.80;92.40;;;;;;5069766;28;20449;-87
2023/07/27 01:29:41;;;;;;;1.93;1.83;;;23.80;92.40;;;;;;5075094;28;20441;-87
2023/07/27 01:32:11;;;;;;;1.73;1.63;;;23.90;92.40;;;;;;5074923;28;20536;-87
2023/07/27 01:34:44;;;;;;;1.83;1.73;;;23.80;92.40;;;;;;5075053;28;20449;-87
2023/07/27 01:37:15;;;;;;;1.73;1.63;;;23.80;92.60;;;;;;5074672;28;20451;-89
2023/07/27 01:39:46;;;;;;;1.80;1.70;;;23.80;92.50;;;;;;5074827;28;20799;-88
2023/07/27 01:42:13;;;;;;;1.70;1.60;;;23.90;92.60;;;;;;5074573;28;20451;-87
2023/07/27 01:44:41;;;;;;;2.23;1.63;;;23.80;92.40;;;;;;5054484;28;20493;-87
2023/07/27 01:47:10;;;;;;;1.70;1.60;;;23.80;92.50;;;;;;5054611;28;20441;-89
2023/07/27 01:49:40;;;;;;;1.67;1.57;;;23.80;92.30;;;;;;5054525;28;20495;-87
2023/07/27 01:52:09;;;;;;;1.80;1.70;;;23.80;92.60;;;;;;5054543;28;20448;-87
2023/07/27 01:54:37;;;;;;;1.80;1.70;;;23.80;92.50;;;;;;5054486;28;20450;-88
2023/07/27 01:57:06;;;;;;;1.63;1.43;;;23.80;92.30;;;;;;5054430;28;20950;-87
2023/07/27 01:59:34;;;;;;;1.60;1.33;;;23.80;92.50;;;;;;5054365;28;20496;-87
2023/07/27 02:02:01;;;;;;;1.87;1.77;;;23.80;92.50;;;;;;5054295;28;20441;-87
2023/07/27 02:04:31;;;;;;;1.63;1.53;;;23.80;92.30;;;;;;5057619;28;20576;-87
2023/07/27 02:06:57;;;;;;;1.80;1.70;;;23.90;92.40;;;;;;5073891;28;20449;-90
2023/07/27 02:09:26;;;;;;;1.83;1.73;;;23.80;92.50;;;;;;5074090;28;20437;-87
2023/07/27 02:11:56;;;;;;;1.97;1.77;;;23.80;92.50;;;;;;5073857;28;20450;-87
2023/07/27 02:14:32;;;;;;;2.33;1.47;;;23.80;92.40;;;;;;5074145;28;20455;-86
2023/07/27 02:17:02;;;;;;;1.60;1.30;;;23.80;92.30;;;;;;5074100;28;20447;-87
2023/07/27 02:19:33;;;;;;;1.70;1.60;;;23.80;92.50;;;;;;5073693;28;20474;-88
2023/07/27 02:22:03;;;;;;;1.70;1.50;;;23.80;92.60;;;;;;5074026;28;20448;-87
2023/07/27 02:24:31;;;;;;;1.47;1.37;;;23.80;92.50;;;;;;5073710;28;20593;-87
2023/07/27 02:26:58;;;;;;;1.30;1.20;;;23.80;92.80;;;;;;5073512;28;20438;-89
2023/07/27 02:29:25;;;;;;;1.30;1.20;;;23.80;92.90;;;;;;5073857;28;20496;-88
2023/07/27 02:31:51;;;;;;;1.60;1.50;;;23.80;92.80;;;;;;5073811;28;20445;-87
2023/07/27 02:34:19;;;;;;;1.67;1.57;;;23.80;92.60;;;;;;5073454;28;20923;-88
2023/07/27 02:36:47;;;;;;;1.50;1.40;;;23.80;92.50;;;;;;5073335;28;20821;-87
2023/07/27 02:39:14;;;;;;;1.70;1.60;;;23.80;92.50;;;;;;5073492;28;20434;-87
2023/07/27 02:41:40;;;;;;;1.87;1.57;;;23.80;92.60;;;;;;5073495;28;20437;-88
2023/07/27 02:44:07;;;;;;;2.17;1.30;;;23.80;92.80;;;;;;5073430;28;20490;-88
2023/07/27 02:46:34;;;;;;;1.60;1.50;;;23.80;93.00;;;;;;5073405;28;20444;-88
2023/07/27 02:49:01;;;;;;;1.53;1.43;;;23.80;92.80;;;;;;5073122;28;20491;-89
2023/07/27 02:51:28;;;;;;;1.70;1.60;;;23.80;92.90;;;;;;5073441;28;20451;-88
2023/07/27 02:53:56;;;;;;;1.50;1.40;;;23.80;93.00;;;;;;5073273;28;20447;-89
2023/07/27 02:56:24;;;;;;;1.50;1.37;;;23.80;92.90;;;;;;5073437;28;20472;-88
2023/07/27 02:58:51;;;;;;;2.07;1.97;;;23.80;93.00;;;;;;5073358;28;20451;-87
2023/07/27 03:01:18;;;;;;;1.50;1.40;;;23.80;92.90;;;;;;5073403;28;20433;-87
2023/07/27 03:03:45;;;;;;;1.23;1.13;;;23.80;92.90;;;;;;5073017;28;20483;-87
2023/07/27 03:06:11;;;;;;;1.73;1.63;;;23.80;92.70;;;;;;5073138;28;20442;-86
2023/07/27 03:08:38;;;;;;;1.37;1.27;;;23.80;92.70;;;;;;5073257;28;20437;-87
2023/07/27 03:11:06;;;;;;;1.40;1.20;;;23.80;92.70;;;;;;5073225;28;21007;-87
2023/07/27 03:13:33;;;;;;;1.40;1.30;;;23.80;92.50;;;;;;5073153;28;20797;-87
2023/07/27 03:16:03;;;;;;;1.67;1.57;;;23.80;92.60;;;;;;5072986;28;20443;-87
2023/07/27 03:18:30;;;;;;;1.70;1.60;;;23.80;92.40;;;;;;5072851;28;20490;-88
2023/07/27 03:20:57;;;;;;;1.40;1.30;;;23.80;92.20;;;;;;5073106;28;20444;-87
2023/07/27 03:23:24;;;;;;;1.60;1.50;;;23.80;92.30;;;;;;5073035;28;20918;-87
2023/07/27 03:25:51;;;;;;;1.60;1.50;;;23.80;92.20;;;;;;5072871;28;20444;-87
2023/07/27 03:28:19;;;;;;;1.60;1.50;;;23.80;92.20;;;;;;5072963;28;20436;-87
2023/07/27 03:30:46;;;;;;;2.00;1.43;;;23.80;92.20;;;;;;5072755;28;20529;-87
2023/07/27 03:33:13;;;;;;;1.50;1.40;;;23.80;92.20;;;;;;5072933;28;20624;-87
2023/07/27 03:35:39;;;;;;;1.43;1.33;;;23.80;92.20;;;;;;5072958;28;20965;-87
2023/07/27 03:38:06;;;;;;;1.50;1.40;;;23.80;92.20;;;;;;5073000;28;20442;-87
2023/07/27 03:40:34;;;;;;;1.60;1.50;;;23.80;92.40;;;;;;5072959;28;20539;-87
2023/07/27 03:43:01;;;;;;;1.83;1.73;;;23.80;92.20;;;;;;5072897;28;20445;-87
2023/07/27 03:45:29;;;;;;;1.90;1.50;;;23.80;92.50;;;;;;5072615;28;20488;-87
2023/07/27 03:47:56;;;;;;;1.57;1.47;;;23.80;92.50;;;;;;5072845;28;20440;-87
2023/07/27 03:50:23;;;;;;;1.57;1.47;;;23.80;92.50;;;;;;5072913;28;20520;-87
2023/07/27 03:52:49;;;;;;;1.50;1.40;;;23.80;92.50;;;;;;5072750;28;20507;-87
2023/07/27 03:55:18;;;;;;;1.80;1.70;;;23.80;92.40;;;;;;5072482;28;20436;-87
2023/07/27 03:57:45;;;;;;;1.70;1.60;;;23.80;92.50;;;;;;5072379;28;20452;-86
2023/07/27 04:00:13;;;;;;;1.50;1.40;;;23.80;93.00;;;;;;5072744;28;20789;-86
2023/07/27 04:02:41;;;;;;;1.60;1.50;;;23.80;92.50;;;;;;5075299;28;20446;-86
2023/07/27 04:05:08;;;;;;;1.60;1.40;;;23.80;92.40;;;;;;5076498;28;20983;-87
2023/07/27 04:07:35;;;;;;;1.57;1.40;;;23.80;92.40;;;;;;5076647;28;20943;-87
2023/07/27 04:10:02;;;;;;;1.90;1.80;;;23.80;92.40;;;;;;5076444;28;20880;-87
2023/07/27 04:12:29;;;;;;;2.00;1.73;;;23.80;92.60;;;;;;5076351;28;20442;-87
2023/07/27 04:14:56;;;;;;;1.50;1.40;;;23.80;92.60;;;;;;5076275;28;21013;-87
2023/07/27 04:17:23;;;;;;;1.30;1.20;;;23.80;92.60;;;;;;5076462;28;20445;-87
2023/07/27 04:19:52;;;;;;;2.17;1.97;;;23.80;92.30;;;;;;5076000;28;20479;-87
2023/07/27 04:22:18;;;;;;;1.60;1.50;;;23.80;92.40;;;;;;5076247;28;20437;-87
2023/07/27 04:24:45;;;;;;;1.90;1.70;;;23.70;92.50;;;;;;5076106;28;20492;-87
2023/07/27 04:27:12;;;;;;;1.40;1.30;;;23.80;92.30;;;;;;5075816;28;20523;-87
2023/07/27 04:29:39;;;;;;;1.50;1.40;;;23.70;92.60;;;;;;5076203;28;20443;-87
2023/07/27 04:32:07;;;;;;;1.53;1.43;;;23.80;92.60;;;;;;5076022;28;20481;-87
2023/07/27 04:34:34;;;;;;;1.40;1.30;;;23.70;92.50;;;;;;5075802;28;20448;-87
2023/07/27 04:37:02;;;;;;;1.23;1.13;;;23.80;92.60;;;;;;5075836;28;20530;-87
2023/07/27 04:39:28;;;;;;;1.70;1.60;;;23.70;92.60;;;;;;5075619;28;20436;-87
2023/07/27 04:41:55;;;;;;;1.50;1.40;;;23.80;92.60;;;;;;5075769;28;20861;-86
2023/07/27 04:44:22;;;;;;;1.60;1.50;;;23.80;92.40;;;;;;5075789;28;20560;-86
2023/07/27 04:46:49;;;;;;;1.70;1.50;;;23.70;92.40;;;;;;5075756;28;20517;-87
2023/07/27 04:49:16;;;;;;;1.40;1.30;;;23.70;92.50;;;;;;5075607;28;20463;-87
2023/07/27 04:51:44;;;;;;;1.70;1.47;;;23.70;92.50;;;;;;5075493;28;20436;-87
2023/07/27 04:54:12;;;;;;;1.50;1.40;;;23.70;92.70;;;;;;5073289;28;20531;-86
2023/07/27 04:56:39;;;;;;;1.43;1.33;;;23.70;92.60;;;;;;5075041;28;20785;-86
2023/07/27 04:59:06;;;;;;;1.80;1.70;;;23.70;92.50;;;;;;5075072;28;20436;-87
2023/07/27 05:01:32;;;;;;;1.40;1.20;;;23.70;92.50;;;;;;5075062;28;20440;-86
2023/07/27 05:03:59;;;;;;;2.60;2.33;;;23.70;92.50;;;;;;5074590;28;20443;-87
2023/07/27 05:06:26;;;;;;;1.50;1.30;;;23.80;92.50;;;;;;5056912;28;20942;-86
2023/07/27 05:08:53;;;;;;;1.60;1.50;;;23.70;92.50;;;;;;5071298;28;20433;-87
2023/07/27 05:11:21;;;;;;;1.70;1.60;;;23.70;92.50;;;;;;5075320;28;20448;-87
2023/07/27 05:13:50;;;;;;;2.07;1.43;;;23.70;92.60;;;;;;5075103;28;20455;-87
2023/07/27 05:16:17;;;;;;;1.40;1.23;;;23.70;92.60;;;;;;5055207;28;20844;-87
2023/07/27 05:18:43;;;;;;;1.57;1.47;;;23.70;92.70;;;;;;5055055;28;20970;-87
2023/07/27 05:21:10;;;;;;;1.57;1.40;;;23.70;92.70;;;;;;5055170;28;20437;-87
2023/07/27 05:23:37;;;;;;;1.50;1.40;;;23.70;92.90;;;;;;5055173;28;20445;-87
2023/07/27 05:26:05;;;;;;;1.60;1.47;;;23.70;92.90;;;;;;5069384;28;20488;-87
2023/07/27 05:28:33;;;;;;;1.67;1.57;;;23.70;92.90;;;;;;5075073;28;20842;-87
2023/07/27 05:31:00;;;;;;;1.50;1.30;;;23.70;93.10;;;;;;5075138;28;20447;-88
2023/07/27 05:33:27;;;;;;;1.43;1.33;;;23.70;93.10;;;;;;5074905;28;20446;-87
2023/07/27 05:35:53;;;;;;;1.60;1.50;;;23.70;93.00;;;;;;5074729;28;20441;-87
2023/07/27 05:38:21;;;;;;;1.40;1.30;;;23.70;93.10;;;;;;5074797;28;20535;-87
2023/07/27 05:40:48;;;;;;;1.60;1.50;;;23.70;93.30;;;;;;5075150;28;20467;-87
2023/07/27 05:43:14;;;;;;;1.40;1.30;;;23.70;93.30;;;;;;5075077;28;20456;-88
2023/07/27 05:45:43;;;;;;;1.50;1.37;;;23.70;93.20;;;;;;5074923;28;20485;-87
2023/07/27 05:48:10;;;;;;;1.70;1.30;;;23.70;93.10;;;;;;5074619;28;20449;-88
2023/07/27 05:50:36;;;;;;;1.43;1.33;;;23.70;93.10;;;;;;5074634;28;20452;-88
2023/07/27 05:53:05;;;;;;;3.17;1.63;;;23.70;93.20;;;;;;5073962;28;20495;-88
2023/07/27 05:55:31;;;;;;;1.40;1.30;;;23.70;93.10;;;;;;5074376;28;20479;-94
2023/07/27 05:57:59;;;;;;;1.50;1.40;;;23.70;93.10;;;;;;5074247;28;20937;-88
2023/07/27 06:00:26;;;;;;;3.53;1.90;;;23.70;93.20;;;;;;5074662;28;20448;-88
2023/07/27 06:02:54;;;;;;;1.93;1.83;;;23.70;93.10;;;;;;5074781;28;20445;-88
2023/07/27 06:05:23;;;;;;;2.67;1.93;;;23.80;93.20;;;;;;5074644;28;20492;-88
2023/07/27 06:07:50;;;;;;;1.97;1.37;;;23.70;93.10;;;;;;5074641;28;20536;-88
2023/07/27 06:10:17;;;;;;;2.30;1.67;;;23.70;93.10;;;;;;5074220;28;20924;-88
2023/07/27 06:12:44;;;;;;;2.27;1.50;;;23.70;93.10;;;;;;5074501;28;20441;-88
2023/07/27 06:15:11;;;;;;;1.40;1.30;;;23.70;93.10;;;;;;5074205;28;20535;-88
2023/07/27 06:17:38;;;;;;;2.83;1.80;;;23.70;93.10;;;;;;5074148;28;20476;-88
2023/07/27 06:20:08;;;;;;;1.60;1.50;;;23.70;93.30;;;;;;5074167;28;20547;-88
2023/07/27 06:22:35;;;;;;;3.40;1.40;;;23.70;93.30;;;;;;5074311;28;20473;-88
2023/07/27 06:25:02;;;;;;;2.33;2.13;;;23.70;93.40;;;;;;5073243;28;20487;-88
2023/07/27 06:27:28;;;;;;;5.47;2.13;;;23.70;93.40;;;;;;5074237;28;20468;-88
2023/07/27 06:29:55;;;;;;;3.60;1.93;;;23.70;93.50;;;;;;5074080;28;20440;-88
2023/07/27 06:32:22;;;;;;;1.50;1.20;;;23.70;93.50;;;;;;5073926;28;21285;-88
2023/07/27 06:34:49;;;;;;;1.80;1.67;;;23.70;93.50;;;;;;5073779;28;20441;-88
2023/07/27 06:37:18;;;;;;;1.50;1.40;;;23.70;93.50;;;;;;5073884;28;20486;-87
2023/07/27 06:39:45;;;;;;;1.70;1.37;;;23.70;93.60;;;;;;5073721;28;20461;-88
2023/07/27 06:42:13;;;;;;;1.50;1.40;;;23.70;93.60;;;;;;5073904;28;20444;-89
2023/07/27 06:44:40;;;;;;;1.57;1.47;;;23.70;93.70;;;;;;5075420;28;20570;-88
2023/07/27 06:47:07;;;;;;;4.40;1.63;;;23.70;93.60;;;;;;5074601;28;20444;-88
2023/07/27 06:49:34;;;;;;;1.80;1.70;;;23.70;93.70;;;;;;5073397;28;20539;-88
2023/07/27 06:52:01;;;;;;;2.80;1.73;;;23.70;93.70;;;;;;5073307;28;20471;-88
2023/07/27 06:54:29;;;;;;;3.17;1.40;;;23.70;94.00;;;;;;5073611;28;20862;-88
2023/07/27 06:56:56;;;;;;;1.90;1.37;;;23.70;94.10;;;;;;5073722;28;20524;-89
2023/07/27 06:59:23;;;;;;;2.10;1.40;;;23.70;94.00;;;;;;5073499;28;20438;-88
2023/07/27 07:01:50;;;;;;;2.43;1.80;;;23.80;94.10;;;;;;5073431;28;20449;-88
2023/07/27 07:04:19;;;;;;;2.73;2.03;;;23.80;94.00;;;;;;5073513;28;20562;-89
2023/07/27 07:06:46;;;;;;;1.30;1.17;;;23.80;94.10;;;;;;5073662;28;20495;-88
2023/07/27 07:09:12;;;;;;;2.40;1.37;;;23.80;94.10;;;;;;5073500;28;20437;-88
2023/07/27 07:11:48;;;;;;;2.03;1.83;;;23.80;94.10;;;;;;5072469;28;20811;-94
2023/07/27 07:14:15;;;;;;;2.40;1.50;;;23.80;94.30;;;;;;5065215;28;20503;-92
2023/07/27 07:16:44;;;;;;;1.50;1.40;;;23.80;94.10;;;;;;5060011;28;20524;-92
2023/07/27 07:19:11;;;;;;;1.40;1.20;;;23.80;94.00;;;;;;5069074;28;20506;-89
2023/07/27 07:21:38;;;;;;;3.53;1.50;;;23.80;94.10;;;;;;5053124;28;20529;-93
2023/07/27 07:24:35;;;;;;;2.67;1.60;;;23.80;94.10;;;;;;5053308;28;20453;-95
2023/07/27 07:27:04;;;;;;;1.60;1.40;;;23.80;93.90;;;;;;5054866;28;20441;-92
2023/07/27 07:29:31;;;;;;;2.10;1.47;;;23.80;93.90;;;;;;5073356;28;20491;-89
2023/07/27 07:31:58;;;;;;;5.10;1.50;;;23.80;94.00;;;;;;5073146;28;20441;-90
2023/07/27 07:34:25;;;;;;;2.07;1.53;;;23.80;94.00;;;;;;5073753;28;20436;-94
2023/07/27 07:36:51;;;;;;;1.87;1.77;;;23.80;94.00;;;;;;5076764;28;20543;-94
2023/07/27 07:39:18;;;;;;;2.20;2.00;;;23.80;94.00;;;;;;5077665;28;20481;-94
2023/07/27 07:41:46;;;;;;;2.30;1.20;;;23.80;94.00;;;;;;5074037;28;20453;-91
2023/07/27 07:44:14;;;;;;;1.80;1.47;;;23.80;93.90;;;;;;5077081;28;20881;-91
2023/07/27 07:46:44;;;;;;;1.50;1.40;;;23.80;93.90;;;;;;5057352;28;20488;-92
2023/07/27 07:49:19;;;;;;;4.33;1.50;;;23.80;94.00;;;;;;5057681;28;20464;-94
2023/07/27 07:51:46;;;;;;;2.40;1.40;;;23.80;94.20;;;;;;5057622;28;20999;-92
2023/07/27 07:57:34;;;;;;;2.43;1.40;;;23.80;94.40;;;;;;5057159;28;20403;-94
2023/07/27 08:00:03;;;;;;;2.03;1.50;;;23.80;94.10;;;;;;5058658;28;20447;-93
2023/07/27 08:02:30;;;;;;;2.20;1.57;;;23.80;94.10;;;;;;5056987;28;20492;-93
2023/07/27 08:04:56;;;;;;;6.53;1.77;;;23.80;94.00;;;;;;5059277;28;20430;-91
2023/07/27 08:07:23;;;;;;;2.00;1.80;;;23.80;94.10;;;;;;5057071;28;20452;-89
2023/07/27 08:09:50;;;;;;;1.80;1.47;;;23.80;94.30;;;;;;5056828;28;21030;-91
2023/07/27 08:12:18;;;;;;;1.87;1.20;;;23.80;94.10;;;;;;5057617;28;20529;-96
2023/07/27 08:14:48;;;;;;;2.27;1.20;;;23.80;94.20;;;;;;5040502;28;20492;-90
2023/07/27 08:17:16;;;;;;;1.73;1.53;;;23.80;94.20;;;;;;5056619;28;20496;-94
2023/07/27 08:19:43;;;;;;;4.20;1.50;;;23.80;94.10;;;;;;5056843;28;20569;-91
2023/07/27 08:22:09;;;;;;;1.57;1.47;;;23.80;94.10;;;;;;5056462;28;20494;-90
2023/07/27 08:24:36;;;;;;;2.10;1.60;;;23.90;94.50;;;;;;5057627;28;20453;-92
2023/07/27 08:27:04;;;;;;;3.37;1.40;;;23.80;94.10;;;;;;5056340;28;20999;-89
2023/07/27 08:29:32;;;;;;;2.90;1.30;;;23.80;94.20;;;;;;5065052;28;20459;-88
2023/07/27 08:32:05;;;;;;;2.17;1.40;;;23.80;94.30;;;;;;5075642;28;20449;-91
2023/07/27 08:34:35;;;;;;;1.60;1.50;;;23.80;94.30;;;;;;5076340;28;20430;-91
2023/07/27 08:37:02;;;;;;;1.77;1.47;;;23.80;94.20;;;;;;5076788;28;20425;-86
2023/07/27 08:39:28;;;;;;;1.50;1.40;;;23.80;94.60;;;;;;5076055;28;20524;-87
2023/07/27 08:41:56;;;;;;;1.60;1.40;;;23.80;94.30;;;;;;5076158;28;20442;-87
2023/07/27 08:44:23;;;;;;;4.90;1.23;;;23.80;94.30;;;;;;5075417;28;20449;-87
2023/07/27 08:46:51;;;;;;;1.30;1.20;;;23.80;94.40;;;;;;5075765;28;20537;-86
2023/07/27 08:49:21;;;;;;;1.40;1.30;;;23.80;94.70;;;;;;5075820;28;20450;-87
2023/07/27 08:51:49;;;;;;;2.10;1.47;;;23.80;94.90;;;;;;5075856;28;20515;-87
2023/07/27 08:54:16;;;;;;;1.40;1.27;;;23.80;94.80;;;;;;5075903;28;20437;-87
2023/07/27 08:56:43;;;;;;;1.23;1.03;;;23.80;94.70;;;;;;5075745;28;20440;-87
2023/07/27 08:59:09;;;;;;;1.53;1.43;;;23.80;94.90;;;;;;5075862;28;20444;-87
2023/07/27 09:01:36;;;;;;;1.70;1.10;;;23.80;94.60;;;;;;5075840;28;20542;-87
2023/07/27 09:04:03;;;;;;;1.40;1.10;;;23.80;94.50;;;;;;5075693;28;20440;-87
2023/07/27 09:06:40;;;;;;;1.63;1.40;;;23.80;94.60;;;;;;5075926;28;20489;-86
2023/07/27 09:09:18;;;;;;;1.40;1.20;;;23.90;94.80;;;;;;5075906;28;20433;-88
2023/07/27 09:11:46;;;;;;;1.73;1.13;;;23.80;94.90;;;;;;5076099;28;20444;-87
2023/07/27 09:14:13;;;;;;;4.03;1.30;;;23.80;95.10;;;;;;5075564;28;20434;-87
2023/07/27 09:16:40;;;;;;;1.63;1.47;;;23.80;95.10;;;;;;5075550;28;21002;-87
2023/07/27 09:19:07;;;;;;;1.33;1.23;;;24.00;95.10;;;;;;5075492;28;20469;-86
2023/07/27 09:21:41;;;;;;;1.50;1.40;;;23.80;95.00;;;;;;5075323;28;20453;-87
2023/07/27 09:24:11;;;;;;;1.20;1.10;;;23.80;95.10;;;;;;5075390;28;20441;-86
2023/07/27 09:26:46;;;;;;;1.40;1.17;;;23.80;95.00;;;;;;5075232;28;20481;-87
2023/07/27 09:29:13;;;;;;;1.23;1.13;;;23.80;95.40;;;;;;5075415;28;20448;-86
2023/07/27 09:31:47;;;;;;;1.40;1.30;;;23.80;94.90;;;;;;5075360;28;20507;-86
2023/07/27 09:34:14;;;;;;;2.47;1.30;;;23.80;95.00;;;;;;5074989;28;20945;-86
2023/07/27 09:36:43;;;;;;;1.10;0.90;;;23.80;95.20;;;;;;5074925;28;20445;-86
2023/07/27 09:39:10;;;;;;;1.30;1.00;;;23.80;94.90;;;;;;5075393;28;20450;-86
2023/07/27 09:41:37;;;;;;;1.27;1.13;;;23.80;95.10;;;;;;5075159;28;20440;-86
2023/07/27 09:44:06;;;;;;;1.43;1.20;;;23.80;95.00;;;;;;5075241;28;20534;-86
2023/07/27 09:46:33;;;;;;;1.40;1.00;;;23.80;95.00;;;;;;5075069;28;20531;-87
2023/07/27 09:49:00;;;;;;;1.20;1.10;;;23.80;95.20;;;;;;5075186;28;20441;-87
2023/07/27 09:51:28;;;;;;;1.40;1.10;;;23.80;95.10;;;;;;5074670;28;20457;-86
2023/07/27 09:53:55;;;;;;;3.10;1.10;;;23.80;95.20;;;;;;5074750;28;20436;-87
2023/07/27 09:56:22;;;;;;;1.20;1.03;;;23.80;95.00;;;;;;5074818;28;20953;-86
2023/07/27 09:58:49;;;;;;;2.20;1.33;;;23.90;95.00;;;;;;5074315;28;20437;-86
2023/07/27 10:01:19;;;;;;;4.40;1.10;;;23.90;95.10;;;;;;5074469;28;20528;-86
2023/07/27 10:03:46;;;;;;;1.40;1.03;;;24.00;95.50;;;;;;5074580;28;20924;-86
2023/07/27 10:06:13;;;;;;;2.43;1.00;;;23.80;95.50;;;;;;5074458;28;20563;-86
2023/07/27 10:08:42;;;;;;;1.80;1.00;;;23.80;95.30;;;;;;5074466;28;20946;-86
2023/07/27 10:11:09;;;;;;;1.30;1.00;;;23.90;95.30;;;;;;5074509;28;20464;-86
2023/07/27 10:13:40;;;;;;;1.80;1.03;;;23.90;95.40;;;;;;5074543;28;20453;-86
2023/07/27 10:16:10;;;;;;;1.27;1.13;;;23.90;95.40;;;;;;5074379;28;20429;-87
2023/07/27 10:18:42;;;;;;;1.10;1.00;;;23.90;95.40;;;;;;5074371;28;20476;-90
2023/07/27 10:21:26;;;;;;;1.40;0.87;;;23.90;95.30;;;;;;5074119;28;20962;-86
2023/07/27 10:23:55;;;;;;;1.53;0.90;;;23.90;95.20;;;;;;5074251;28;20443;-86
2023/07/27 10:26:22;;;;;;;1.10;0.80;;;23.90;95.10;;;;;;5074228;28;20483;-87
2023/07/27 10:28:49;;;;;;;1.23;1.00;;;24.00;95.20;;;;;;5073899;28;20955;-87
2023/07/27 10:31:23;;;;;;;1.13;0.90;;;23.90;95.30;;;;;;5073822;28;20450;-87
2023/07/27 10:33:56;;;;;;;4.03;1.00;;;23.90;95.40;;;;;;5074059;28;20945;-86
2023/07/27 10:36:23;;;;;;;1.10;0.90;;;23.90;95.20;;;;;;5074248;28;20432;-86
2023/07/27 10:38:54;;;;;;;1.47;1.00;;;23.90;95.10;;;;;;5073889;28;20443;-87
2023/07/27 10:41:22;;;;;;;1.93;1.00;;;23.90;94.90;;;;;;5074302;28;20499;-87
2023/07/27 10:44:18;;;;;;;1.17;0.90;;;24.00;95.10;;;;;;5073924;28;20518;-86
2023/07/27 10:46:48;;;;;;;1.10;0.80;;;23.90;95.30;;;;;;5074029;28;20523;-87
2023/07/27 10:49:17;;;;;;;1.30;1.00;;;23.90;95.10;;;;;;5073693;28;20441;-87
2023/07/27 10:51:46;;;;;;;1.13;0.97;;;23.90;95.10;;;;;;5073734;28;20461;-88
2023/07/27 10:54:14;;;;;;;1.10;0.90;;;23.90;95.00;;;;;;5073845;28;20449;-86
2023/07/27 10:56:42;;;;;;;3.07;1.10;;;23.90;95.00;;;;;;5073615;28;20452;-86
2023/07/27 10:59:13;;;;;;;1.33;1.23;;;24.00;95.00;;;;;;5075076;28;20443;-94
2023/07/27 11:01:41;;;;;;;1.60;1.50;;;23.90;95.20;;;;;;5076598;28;20452;-93
2023/07/27 11:04:09;;;;;;;3.40;2.93;;;23.90;95.30;;;;;;5075869;28;20939;-93
2023/07/27 11:06:45;;;;;;;1.53;1.43;;;23.90;95.30;;;;;;5078902;28;20520;-93
2023/07/27 11:09:14;;;;;;;4.87;1.90;;;23.90;95.30;;;;;;5058982;28;20424;-93
2023/07/27 11:11:41;;;;;;;2.70;2.27;;;23.90;95.40;;;;;;5075975;28;20462;-94
2023/07/27 11:14:08;;;;;;;7.30;3.60;;;24.00;95.40;;;;;;5076060;28;20959;-94
2023/07/27 11:16:38;;;;;;;5.47;3.27;;;23.90;95.50;;;;;;5076061;28;20435;-92
2023/07/27 11:19:07;;;;;;;5.10;3.37;;;24.00;95.70;;;;;;5075887;28;20488;-93
2023/07/27 11:21:39;;;;;;;4.13;2.43;;;24.00;95.70;;;;;;5077982;28;20460;-94
2023/07/27 11:24:09;;;;;;;8.33;4.30;;;24.00;95.80;;;;;;5075768;28;20443;-93
2023/07/27 11:26:37;;;;;;;11.10;4.80;;;24.00;95.80;;;;;;5076390;28;20481;-89
2023/07/27 11:29:05;;;;;;;11.10;4.87;;;24.00;95.70;;;;;;5075828;28;20439;-94
2023/07/27 11:31:33;;;;;;;5.53;4.20;;;24.00;96.10;;;;;;5076212;28;20924;-94
2023/07/27 11:34:01;;;;;;;7.20;3.20;;;24.00;96.20;;;;;;5075831;28;20494;-94
2023/07/27 11:36:30;;;;;;;7.30;3.40;;;24.00;96.30;;;;;;5075548;28;20436;-91
2023/07/27 11:38:57;;;;;;;4.20;3.20;;;24.00;96.00;;;;;;5075277;28;20444;-94
2023/07/27 11:41:30;;;;;;;4.80;2.90;;;24.00;96.10;;;;;;5075635;28;20452;-92
2023/07/27 11:43:58;;;;;;;4.13;2.87;;;24.00;96.10;;;;;;5075972;28;20502;-93
2023/07/27 11:46:27;;;;;;;4.33;2.50;;;24.00;96.00;;;;;;5075708;28;20477;-93
2023/07/27 11:48:56;;;;;;;6.73;3.80;;;24.00;96.00;;;;;;5076053;28;20441;-95
2023/07/27 11:51:25;;;;;;;5.73;2.73;;;24.00;95.80;;;;;;5075877;28;20472;-94
2023/07/27 11:53:52;;;;;;;4.27;2.20;;;24.00;95.70;;;;;;5075685;28;20792;-94
2023/07/27 11:56:19;;;;;;;11.17;3.57;;;24.00;95.80;;;;;;5076327;28;20517;-95
2023/07/27 11:58:48;;;;;;;4.97;2.20;;;24.00;95.90;;;;;;5079162;28;20452;-92
2023/07/27 12:01:16;;;;;;;5.17;2.77;;;24.00;96.10;;;;;;5077256;28;20448;-94
2023/07/27 12:06:28;;;;;;;4.17;2.47;;;24.00;95.90;;;;;;5081129;28;20938;-94
2023/07/27 12:08:56;;;;;;;3.80;2.30;;;24.00;95.80;;;;;;5075777;28;20477;-92
2023/07/27 12:11:27;;;;;;;3.40;2.33;;;24.00;96.00;;;;;;5075728;28;20438;-93
2023/07/27 12:13:55;;;;;;;3.63;2.07;;;24.00;95.90;;;;;;5058284;28;20441;-94
2023/07/27 12:16:22;;;;;;;4.80;2.20;;;24.00;95.80;;;;;;5075683;28;20444;-93
2023/07/27 12:18:50;;;;;;;6.70;2.50;;;24.10;95.80;;;;;;5075546;28;20468;-94
2023/07/27 12:21:17;;;;;;;5.40;2.30;;;24.00;95.90;;;;;;5075681;28;20462;-95
2023/07/27 12:23:44;;;;;;;4.40;2.63;;;24.00;95.80;;;;;;5078603;28;20443;-94
2023/07/27 12:26:11;;;;;;;4.33;2.23;;;24.00;96.20;;;;;;5079084;28;20442;-95
2023/07/27 12:28:38;;;;;;;2.60;2.40;;;24.00;96.00;;;;;;5078858;28;20477;-94
2023/07/27 12:31:06;;;;;;;4.20;2.23;;;24.00;96.00;;;;;;5078945;28;20442;-94
2023/07/27 12:33:33;;;;;;;2.60;1.90;;;24.00;95.90;;;;;;5078860;28;20441;-92
2023/07/27 12:36:00;;;;;;;4.30;2.40;;;24.00;96.00;;;;;;5079074;28;20909;-94
2023/07/27 12:38:27;;;;;;;8.67;2.40;;;24.10;96.00;;;;;;5079657;28;20452;-94
2023/07/27 12:40:54;;;;;;;2.60;1.57;;;24.00;95.90;;;;;;5079521;28;20526;-90
2023/07/27 12:43:22;;;;;;;2.57;1.97;;;24.00;96.00;;;;;;5077812;28;20445;-91
2023/07/27 12:45:50;;;;;;;7.63;1.90;;;24.00;96.40;;;;;;5078639;28;20445;-93
2023/07/27 12:48:18;;;;;;;2.27;1.40;;;24.00;96.90;;;;;;5079225;28;20912;-93
2023/07/27 12:50:46;;;;;;;4.13;1.53;;;24.00;96.90;;;;;;5078653;28;20479;-95
2023/07/27 12:53:14;;;;;;;2.10;1.70;;;24.00;96.80;;;;;;5078946;28;20445;-95
2023/07/27 12:55:41;;;;;;;2.43;1.87;;;24.00;96.50;;;;;;5078305;28;20531;-94
2023/07/27 12:58:08;;;;;;;3.20;2.00;;;24.00;96.40;;;;;;5079142;28;20445;-92